Time;durP1;ratioP1;P1;durP2;ratioP2;P2;SDS_P1;SDS_P2;PMS_P1;PMS_P2;Temp;Humidity;BMP_temperature;BMP_pressure;BME280_temperature;BME280_humidity;BME280_pressure;Samples;Min_cycle;Max_cycle;Signal;HPM_P1;HPM_P2
2023/06/26 06:34:52;;;;;;;;;9.33;6.33;;;;;19.92;58.09;101739.56;5535700;23;46295;-70
2023/06/26 06:37:18;;;;;;;;;8.00;5.67;;;;;20.04;58.19;101752.09;4941652;28;45355;-70
2023/06/26 06:39:43;;;;;;;;;10.33;6.67;;;;;20.22;57.79;101743.13;4938682;28;52503;-71
2023/06/26 06:42:08;;;;;;;;;7.33;6.00;;;;;20.55;57.27;101767.28;4939920;28;45334;-69
2023/06/26 06:44:33;;;;;;;;;7.33;5.67;;;;;20.78;56.61;101756.53;4938666;28;45187;-69
2023/06/26 06:46:59;;;;;;;;;11.33;7.00;;;;;20.95;56.16;101748.41;4945704;28;46297;-70
2023/06/26 06:49:24;;;;;;;;;6.33;5.33;;;;;21.29;55.93;101767.09;4946134;28;45415;-69
2023/06/26 06:51:49;;;;;;;;;6.33;5.00;;;;;21.49;55.19;101768.84;4948633;28;45445;-69
2023/06/26 06:54:16;;;;;;;;;6.67;5.00;;;;;21.62;55.12;101760.69;4942022;28;46054;-69
2023/06/26 06:56:42;;;;;;;;;5.33;5.00;;;;;21.76;54.47;101762.38;4942804;28;45214;-70
2023/06/26 06:59:07;;;;;;;;;6.00;5.00;;;;;21.63;54.32;101743.63;4940906;28;45388;-70
2023/06/26 07:01:33;;;;;;;;;8.00;6.00;;;;;21.82;54.06;101759.66;4940024;28;45324;-69
2023/06/26 07:03:58;;;;;;;;;11.67;7.67;;;;;21.85;53.37;101771.28;4945649;28;45396;-71
2023/06/26 07:06:23;;;;;;;;;11.33;6.67;;;;;21.89;53.28;101746.13;4940297;28;45779;-69
2023/06/26 07:08:49;;;;;;;;;6.33;6.00;;;;;22.18;53.17;101760.28;4944741;28;45408;-69
2023/06/26 07:11:15;;;;;;;;;7.67;6.33;;;;;22.28;53.12;101745.84;4943137;28;45390;-69
2023/06/26 07:13:40;;;;;;;;;7.00;5.67;;;;;22.50;51.81;101747.44;4942862;28;45252;-69
2023/06/26 07:16:05;;;;;;;;;6.67;6.67;;;;;22.78;51.39;101764.22;4942717;28;45393;-69
2023/06/26 07:18:31;;;;;;;;;4.67;4.67;;;;;22.85;51.03;101731.78;4943669;28;45516;-70
2023/06/26 07:20:56;;;;;;;;;5.67;5.00;;;;;23.16;50.61;101771.00;4946635;28;45458;-69
2023/06/26 07:23:21;;;;;;;;;5.67;5.00;;;;;23.22;49.85;101768.22;4942827;28;52733;-70
2023/06/26 07:25:47;;;;;;;;;9.00;7.67;;;;;23.33;49.99;101760.00;4940364;28;45454;-70
2023/06/26 07:28:12;;;;;;;;;6.00;6.00;;;;;23.74;49.76;101768.47;4954694;28;45318;-72
2023/06/26 07:30:38;;;;;;;;;5.00;5.00;;;;;24.11;49.46;101771.47;4941216;28;45452;-70
2023/06/26 07:33:03;;;;;;;;;8.00;6.00;;;;;24.16;49.04;101753.38;4957215;28;45448;-71
2023/06/26 07:35:28;;;;;;;;;3.00;3.00;;;;;24.33;48.28;101774.69;4944846;28;46078;-71
2023/06/26 07:37:54;;;;;;;;;5.33;5.33;;;;;24.54;47.26;101776.19;4948442;28;53234;-71
2023/06/26 07:40:19;;;;;;;;;7.33;6.00;;;;;24.60;47.14;101776.06;4945073;28;45257;-69
2023/06/26 07:42:46;;;;;;;;;4.67;3.33;;;;;24.56;46.42;101774.31;4945142;28;45525;-68
2023/06/26 07:45:12;;;;;;;;;3.25;2.00;;;;;24.48;46.15;101760.09;4933435;28;46126;-71
2023/06/26 07:47:40;;;;;;;;;4.33;4.33;;;;;24.47;48.03;101785.31;4950054;28;45221;-69
2023/06/26 07:50:06;;;;;;;;;3.00;2.00;;;;;24.17;46.49;101760.59;4942086;28;45326;-71
2023/06/26 07:52:31;;;;;;;;;5.00;4.00;;;;;24.20;45.92;101770.41;4937269;28;46288;-72
2023/06/26 07:54:57;;;;;;;;;8.33;6.00;;;;;24.55;46.21;101786.97;4938099;28;45486;-71
2023/06/26 07:57:22;;;;;;;;;6.67;4.00;;;;;24.82;46.19;101790.09;4951766;28;45394;-71
2023/06/26 07:59:48;;;;;;;;;5.75;4.00;;;;;24.76;45.54;101776.69;4942656;28;45357;-72
2023/06/26 08:02:13;;;;;;;;;4.75;4.75;;;;;24.92;46.37;101788.97;4952440;28;45539;-71
2023/06/26 08:04:39;;;;;;;;;3.00;3.00;;;;;25.14;44.12;101788.53;4944396;28;45403;-72
2023/06/26 08:07:04;;;;;;;;;4.50;3.00;;;;;25.42;45.14;101794.31;4953453;28;45731;-71
2023/06/26 08:09:30;;;;;;;;;5.50;3.00;;;;;25.74;43.63;101793.59;4950302;28;45272;-69
2023/06/26 08:11:56;;;;;;;;;4.00;3.00;;;;;26.05;42.35;101788.38;4954789;28;45377;-71
2023/06/26 08:14:23;;;;;;;;;5.75;4.25;;;;;26.54;42.18;101797.13;4947523;28;45453;-71
2023/06/26 08:16:48;;;;;;;;;4.50;3.75;;;;;26.84;42.28;101797.22;4952599;28;45545;-69
2023/06/26 08:19:14;;;;;;;;;3.00;2.25;;;;;27.00;42.50;101798.59;4947457;28;45687;-69
2023/06/26 08:21:41;;;;;;;;;3.00;3.00;;;;;27.01;43.18;101803.06;4946163;28;45471;-69
2023/06/26 08:24:06;;;;;;;;;4.00;4.00;;;;;27.03;42.49;101809.34;4946754;28;45472;-69
2023/06/26 08:26:32;;;;;;;;;7.25;3.50;;;;;27.16;41.63;101804.47;4950157;28;45243;-69
2023/06/26 08:28:57;;;;;;;;;3.75;2.00;;;;;27.19;40.31;101769.09;4948923;28;45307;-70
2023/06/26 08:31:22;;;;;;;;;8.00;4.00;;;;;27.36;39.81;101806.63;4943490;28;46006;-69
2023/06/26 08:33:48;;;;;;;;;1.00;1.00;;;;;27.21;41.72;101792.56;4948896;28;46158;-70
2023/06/26 08:36:13;;;;;;;;;3.50;3.00;;;;;26.99;41.23;101778.69;4950129;28;45559;-70
2023/06/26 08:38:42;;;;;;;;;4.00;4.00;;;;;26.88;39.74;101772.66;4950627;28;45366;-69
2023/06/26 08:41:07;;;;;;;;;4.75;4.00;;;;;27.07;39.70;101805.59;4947470;28;45510;-70
2023/06/26 08:43:33;;;;;;;;;2.75;2.75;;;;;27.27;40.67;101798.75;4949180;28;46419;-70
2023/06/26 08:45:59;;;;;;;;;4.25;3.75;;;;;27.44;39.46;101800.00;4943317;28;45397;-69
2023/06/26 08:48:25;;;;;;;;;2.50;2.50;;;;;27.27;37.72;101758.91;4951400;28;45300;-70
2023/06/26 08:50:54;;;;;;;;;2.50;1.00;;;;;27.35;38.29;101786.72;4940698;28;45309;-70
2023/06/26 08:53:47;;;;;;;;;3.00;3.00;;;;;27.23;38.79;101800.66;4942810;28;45416;-70
2023/06/26 08:56:17;;;;;;;;;4.75;3.25;;;;;27.31;37.25;101797.72;4944274;28;45360;-69
2023/06/26 08:58:43;;;;;;;;;4.00;2.75;;;;;27.45;38.30;101792.78;4949588;28;45410;-69
2023/06/26 09:01:09;;;;;;;;;3.00;3.00;;;;;27.62;37.62;101786.84;4951809;28;46157;-71
2023/06/26 09:03:35;;;;;;;;;4.25;3.75;;;;;27.81;38.29;101792.59;4945330;28;45418;-70
2023/06/26 09:06:00;;;;;;;;;2.25;2.25;;;;;27.94;36.77;101788.53;4944023;28;45523;-69
2023/06/26 09:08:26;;;;;;;;;4.00;4.00;;;;;27.95;36.91;101797.59;4945889;28;45982;-70
2023/06/26 09:10:51;;;;;;;;;1.25;1.25;;;;;27.93;35.92;101786.78;4938943;28;45446;-70
2023/06/26 09:13:18;;;;;;;;;4.75;2.75;;;;;28.12;36.46;101797.94;4945506;28;45321;-70
2023/06/26 09:15:45;;;;;;;;;2.40;2.40;;;;;28.32;34.84;101792.72;4934991;28;45436;-69
2023/06/26 09:18:11;;;;;;;;;3.00;3.00;;;;;28.62;34.49;101799.91;4940276;28;45204;-70
2023/06/26 09:20:37;;;;;;;;;3.50;2.75;;;;;28.86;34.86;101796.31;4932508;28;45539;-69
2023/06/26 09:23:03;;;;;;;;;2.25;2.25;;;;;28.81;34.34;101742.97;4957265;28;45362;-70
2023/06/26 09:25:29;;;;;;;;;1.60;1.60;;;;;29.17;34.12;101792.47;4939125;28;45455;-70
2023/06/26 09:27:55;;;;;;;;;1.75;1.75;;;;;29.30;32.91;101788.34;4947617;28;45467;-71
2023/06/26 09:30:21;;;;;;;;;1.60;1.20;;;;;29.35;34.32;101780.91;4942262;28;45444;-70
2023/06/26 09:32:47;;;;;;;;;5.25;3.00;;;;;29.30;32.50;101782.91;4946799;28;46177;-70
2023/06/26 09:35:12;;;;;;;;;2.50;1.00;;;;;29.38;32.13;101791.69;4942178;28;45457;-70
2023/06/26 09:37:38;;;;;;;;;2.00;2.00;;;;;29.48;32.64;101797.63;4949987;28;45373;-70
2023/06/26 09:40:08;;;;;;;;;2.75;1.50;;;;;29.44;31.17;101790.53;4940155;28;45355;-70
2023/06/26 09:42:33;;;;;;;;;3.40;2.20;;;;;29.32;31.70;101780.09;4947493;28;46390;-70
2023/06/26 09:44:59;;;;;;;;;2.00;2.00;;;;;29.55;32.74;101771.94;4938965;28;45540;-72
2023/06/26 09:47:25;;;;;;;;;2.50;1.25;;;;;29.95;32.11;101794.91;4954362;28;45428;-71
2023/06/26 09:49:52;;;;;;;;;3.00;3.00;;;;;30.09;32.46;101781.56;4943996;28;45448;-71
2023/06/26 09:52:19;;;;;;;;;1.40;1.40;;;;;30.33;31.76;101784.22;4955945;28;45356;-71
2023/06/26 09:54:45;;;;;;;;;1.80;1.20;;;;;30.60;31.03;101798.53;4944857;28;45461;-70
2023/06/26 09:57:12;;;;;;;;;1.00;0.60;;;;;30.69;29.83;101795.41;4954482;28;45467;-71
2023/06/26 09:59:38;;;;;;;;;1.00;1.00;;;;;30.45;32.46;101785.56;4942266;28;46038;-71
2023/06/26 10:02:04;;;;;;;;;2.75;2.75;;;;;30.17;32.56;101797.63;4940805;28;45518;-71
2023/06/26 10:04:29;;;;;;;;;3.00;3.00;;;;;30.10;32.17;101807.88;4941215;28;45555;-71
2023/06/26 10:06:57;;;;;;;;;5.25;3.00;;;;;29.91;31.03;101811.44;4931848;28;45397;-71
2023/06/26 10:09:23;;;;;;;;;1.00;1.00;;;;;29.74;32.18;101820.28;4946411;28;45532;-70
2023/06/26 10:12:15;;;;;;;;;1.25;1.25;;;;;29.26;31.01;101777.63;4956038;28;45530;-70
2023/06/26 10:14:41;;;;;;;;;2.00;2.00;;;;;29.44;31.89;101788.72;4948780;28;45345;-70
2023/06/26 10:17:11;;;;;;;;;2.40;2.40;;;;;29.76;30.80;101802.03;4949823;28;45343;-71
2023/06/26 10:19:39;;;;;;;;;2.20;2.20;;;;;29.76;31.06;101802.03;4943460;28;46867;-70
2023/06/26 10:22:05;;;;;;;;;0.80;0.80;;;;;29.84;31.59;101795.31;4951057;28;46135;-70
2023/06/26 10:24:34;;;;;;;;;1.75;1.75;;;;;30.04;28.93;101793.63;4935739;28;45542;-70
2023/06/26 10:27:10;;;;;;;;;0.00;0.00;;;;;30.23;30.40;101796.50;4946529;28;45393;-70
2023/06/26 10:29:36;;;;;;;;;3.00;2.00;;;;;30.38;28.41;101801.31;4942339;28;45223;-70
2023/06/26 10:32:05;;;;;;;;;2.25;1.25;;;;;30.51;29.36;101799.81;4945300;28;47038;-70
2023/06/26 10:34:31;;;;;;;;;2.60;2.60;;;;;30.44;29.93;101797.41;4936589;28;45496;-70
2023/06/26 10:37:00;;;;;;;;;1.25;1.25;;;;;30.26;28.92;101810.03;4956151;28;45406;-71
2023/06/26 10:39:26;;;;;;;;;4.20;2.40;;;;;30.34;28.11;101810.59;4943643;28;46050;-70
2023/06/26 10:41:55;;;;;;;;;5.25;3.75;;;;;30.42;28.93;101808.41;4943942;28;46127;-70
2023/06/26 10:44:20;;;;;;;;;2.00;1.80;;;;;30.58;29.18;101813.19;4947080;28;45292;-71
2023/06/26 10:46:53;;;;;;;;;2.20;2.20;;;;;30.57;28.60;101814.16;4946901;28;45350;-71
2023/06/26 10:49:20;;;;;;;;;5.20;2.40;;;;;30.46;29.25;101806.44;4948254;28;45461;-71
2023/06/26 10:51:48;;;;;;;;;1.40;1.40;;;;;30.25;28.34;101806.41;4948995;28;45503;-70
2023/06/26 10:54:20;;;;;;;;;3.40;2.80;;;;;30.35;29.50;101817.81;4949971;28;45437;-70
2023/06/26 10:56:50;;;;;;;;;5.20;3.80;;;;;30.49;29.77;101804.47;4948427;28;45272;-70
2023/06/26 10:59:15;;;;;;;;;1.20;1.20;;;;;30.72;28.87;101818.94;4948244;28;45246;-71
2023/06/26 11:01:42;;;;;;;;;4.00;2.50;;;;;30.66;29.18;101811.91;4950738;28;45311;-70
2023/06/26 11:04:08;;;;;;;;;2.20;2.00;;;;;30.89;29.09;101804.56;4950325;28;45470;-70
2023/06/26 11:06:35;;;;;;;;;3.20;2.40;;;;;31.07;28.57;101825.59;4943554;28;45237;-70
2023/06/26 11:09:05;;;;;;;;;3.00;3.00;;;;;31.20;28.57;101794.03;4955115;28;45512;-70
2023/06/26 11:11:53;;;;;;;;;1.80;1.80;;;;;31.56;28.02;101806.94;4949846;28;47270;-71
2023/06/26 11:14:19;;;;;;;;;1.40;1.40;;;;;31.70;26.32;101814.47;4949503;28;45380;-71
2023/06/26 11:16:45;;;;;;;;;1.00;1.00;;;;;31.94;27.08;101787.84;4953514;28;45383;-70
2023/06/26 11:19:11;;;;;;;;;2.80;2.80;;;;;32.06;25.96;101800.00;4954720;28;45325;-71
2023/06/26 11:21:40;;;;;;;;;1.25;0.75;;;;;32.23;26.56;101805.50;4954446;28;45299;-71
2023/06/26 11:24:09;;;;;;;;;2.00;1.80;;;;;32.39;26.65;101804.75;4954475;28;46084;-70
2023/06/26 11:26:43;;;;;;;;;3.60;2.20;;;;;32.36;26.52;101808.50;4941011;28;45523;-71
2023/06/26 11:29:10;;;;;;;;;2.80;2.40;;;;;32.27;25.19;101809.00;4942082;28;46697;-70
2023/06/26 11:31:37;;;;;;;;;2.00;2.00;;;;;32.21;26.46;101820.22;4941841;28;45361;-70
2023/06/26 11:34:05;;;;;;;;;2.80;2.20;;;;;31.91;26.37;101793.47;4952705;28;45377;-71
2023/06/26 11:36:31;;;;;;;;;2.80;2.80;;;;;31.82;25.65;101810.28;4947802;28;45188;-71
2023/06/26 11:38:58;;;;;;;;;2.25;2.25;;;;;31.57;26.77;101808.75;4951442;28;45309;-71
2023/06/26 11:41:26;;;;;;;;;4.20;2.80;;;;;31.43;26.17;101806.66;4942732;28;46451;-71
2023/06/26 11:43:52;;;;;;;;;3.20;3.20;;;;;31.46;26.08;101816.56;4940729;28;45496;-71
2023/06/26 11:46:19;;;;;;;;;4.00;4.00;;;;;31.30;25.72;101805.41;4946353;28;45520;-72
2023/06/26 11:48:44;;;;;;;;;2.20;1.40;;;;;31.47;26.13;101825.63;4956963;28;45419;-71
2023/06/26 11:51:13;;;;;;;;;4.50;4.50;;;;;31.48;26.16;101817.38;4944772;28;46189;-73
2023/06/26 11:53:41;;;;;;;;;4.40;3.60;;;;;31.55;26.25;101820.69;4954152;28;45272;-70
2023/06/26 11:56:14;;;;;;;;;3.00;3.00;;;;;31.71;26.09;101812.66;4946079;28;45582;-71
2023/06/26 11:59:06;;;;;;;;;4.00;3.00;;;;;31.88;25.46;101807.25;4954269;28;46178;-71
2023/06/26 12:01:47;;;;;;;;;2.60;2.60;;;;;32.19;26.46;101798.44;4950564;28;46280;-71
2023/06/26 12:04:17;;;;;;;;;4.20;3.40;;;;;32.30;26.25;101809.72;4951722;28;45337;-71
2023/06/26 12:06:47;;;;;;;;;4.20;2.20;;;;;32.28;26.31;101810.75;4947484;28;45342;-71
2023/06/26 12:09:13;;;;;;;;;4.80;3.00;;;;;32.23;25.21;101802.78;4952241;28;45433;-71
2023/06/26 12:11:42;;;;;;;;;2.20;2.20;;;;;32.46;25.60;101817.16;4949529;28;45453;-71
2023/06/26 12:14:08;;;;;;;;;2.20;2.20;;;;;32.65;25.42;101814.38;4952897;28;45210;-71
2023/06/26 12:16:35;;;;;;;;;3.00;1.00;;;;;32.75;25.15;101800.13;4950677;28;45401;-71
2023/06/26 12:19:05;;;;;;;;;4.20;2.40;;;;;32.79;25.94;101802.69;4954018;28;45337;-71
2023/06/26 12:21:33;;;;;;;;;1.20;1.20;;;;;32.61;24.49;101799.06;4951649;28;45254;-71
2023/06/26 12:24:00;;;;;;;;;1.40;1.40;;;;;32.74;24.18;101798.34;4954315;28;45382;-71
2023/06/26 12:26:26;;;;;;;;;3.80;3.80;;;;;32.65;23.99;101795.19;4933970;28;45299;-71
2023/06/26 12:28:51;;;;;;;;;3.80;3.00;;;;;32.52;23.53;101801.31;4950950;28;46316;-71
2023/06/26 12:31:20;;;;;;;;;2.75;2.75;;;;;32.66;24.30;101797.00;4941712;28;46032;-71
2023/06/26 12:33:45;;;;;;;;;2.60;2.60;;;;;32.94;24.50;101804.63;4951234;28;45246;-71
2023/06/26 12:36:14;;;;;;;;;2.75;2.75;;;;;33.09;24.00;101805.66;4939931;28;45298;-71
2023/06/26 12:38:41;;;;;;;;;1.60;1.60;;;;;33.04;23.58;101805.03;4950825;28;45258;-71
2023/06/26 12:41:15;;;;;;;;;2.20;1.20;;;;;33.08;23.41;101795.66;4941940;28;46213;-71
2023/06/26 12:43:41;;;;;;;;;4.40;1.40;;;;;33.23;23.45;101794.84;4941394;28;45507;-71
2023/06/26 12:46:07;;;;;;;;;2.60;1.20;;;;;33.33;22.73;101796.09;4931999;28;45430;-71
2023/06/26 12:48:47;;;;;;;;;2.75;2.75;;;;;33.39;23.63;101800.34;4951624;28;45242;-71
2023/06/26 12:51:17;;;;;;;;;2.60;2.60;;;;;33.28;23.22;101786.38;4944111;28;46625;-71
2023/06/26 12:53:43;;;;;;;;;4.20;3.80;;;;;33.15;23.15;101794.38;4952147;28;45342;-71
2023/06/26 12:56:09;;;;;;;;;4.00;3.00;;;;;33.12;22.62;101792.69;4945421;28;45290;-71
2023/06/26 12:58:36;;;;;;;;;3.40;3.00;;;;;33.29;23.08;101788.13;4955426;28;45266;-71
2023/06/26 13:01:14;;;;;;;;;3.40;2.60;;;;;33.56;23.70;101785.72;4946999;28;45398;-71
2023/06/26 13:03:40;;;;;;;;;2.20;2.20;;;;;33.76;23.11;101804.66;4955457;28;45294;-71
2023/06/26 13:06:06;;;;;;;;;5.00;5.00;;;;;33.82;22.69;101803.44;4939933;28;45445;-71
2023/06/26 13:08:31;;;;;;;;;6.50;5.00;;;;;33.88;21.96;101790.22;4951868;28;45450;-72
2023/06/26 13:10:56;;;;;;;;;4.75;3.50;;;;;33.85;22.31;101804.13;4939077;28;45374;-71
2023/06/26 13:13:22;;;;;;;;;2.50;2.50;;;;;33.81;23.32;101790.69;4957331;28;45337;-71
2023/06/26 13:15:47;;;;;;;;;4.00;2.25;;;;;33.91;23.45;101796.53;4944648;28;45277;-71
2023/06/26 13:18:12;;;;;;;;;7.75;3.50;;;;;33.74;21.94;101801.13;4957648;28;45253;-71
2023/06/26 13:20:38;;;;;;;;;5.00;2.50;;;;;33.90;23.25;101806.63;4946550;28;49476;-71
2023/06/26 13:23:03;;;;;;;;;5.00;2.00;;;;;34.01;22.39;101804.13;4957971;28;45301;-71
2023/06/26 13:25:29;;;;;;;;;1.25;1.25;;;;;34.14;22.16;101795.19;4940371;28;45577;-71
2023/06/26 13:27:54;;;;;;;;;1.75;1.75;;;;;34.25;22.60;101807.31;4947616;28;45334;-71
2023/06/26 13:30:21;;;;;;;;;2.00;2.00;;;;;34.20;22.02;101798.50;4942418;28;46032;-71
2023/06/26 13:32:47;;;;;;;;;1.20;1.20;;;;;34.16;22.34;101805.13;4949085;28;45296;-72
2023/06/26 13:35:13;;;;;;;;;0.50;0.50;;;;;34.24;22.26;101800.06;4944563;28;45491;-71
2023/06/26 13:37:40;;;;;;;;;5.00;3.40;;;;;34.27;22.56;101802.63;4951187;28;45571;-71
2023/06/26 13:40:07;;;;;;;;;2.80;2.80;;;;;34.22;21.37;101799.25;4940216;28;46095;-73
2023/06/26 13:42:32;;;;;;;;;4.20;1.80;;;;;34.27;22.53;101799.88;4934703;28;45351;-71
2023/06/26 13:44:58;;;;;;;;;0.50;0.50;;;;;33.98;21.94;101789.72;4934190;28;45581;-71
2023/06/26 13:47:23;;;;;;;;;1.00;1.00;;;;;33.91;21.07;101808.38;4952485;28;45313;-71
2023/06/26 13:49:48;;;;;;;;;2.00;2.00;;;;;33.91;21.57;101797.41;4942888;28;46561;-71
2023/06/26 13:52:14;;;;;;;;;2.75;2.75;;;;;34.07;21.13;101805.66;4947408;28;45315;-72
2023/06/26 13:54:40;;;;;;;;;1.50;1.00;;;;;34.10;21.73;101800.00;4946100;28;45501;-74
2023/06/26 13:57:06;;;;;;;;;2.20;2.20;;;;;33.93;21.84;101800.94;4934565;28;46298;-73
2023/06/26 13:59:33;;;;;;;;;3.40;2.40;;;;;33.79;21.07;101796.25;4943360;28;45297;-72
2023/06/26 14:01:58;;;;;;;;;2.20;1.40;;;;;33.69;21.37;101808.72;4935406;28;45458;-73
2023/06/26 14:04:24;;;;;;;;;2.00;1.50;;;;;33.66;22.42;101800.66;4946052;28;45463;-73
2023/06/26 14:06:49;;;;;;;;;2.25;2.00;;;;;33.50;22.12;101797.91;4941566;28;45895;-75
2023/06/26 14:09:15;;;;;;;;;2.00;2.00;;;;;33.37;22.06;101786.72;4945112;28;45684;-73
2023/06/26 14:11:40;;;;;;;;;4.75;1.25;;;;;33.34;21.91;101784.16;4942231;28;45265;-72
2023/06/26 14:14:06;;;;;;;;;1.00;1.00;;;;;33.37;21.51;101797.69;4955385;28;45390;-71
2023/06/26 14:16:32;;;;;;;;;2.50;2.50;;;;;33.40;21.64;101802.13;4936892;28;46336;-72
2023/06/26 14:18:58;;;;;;;;;0.80;0.60;;;;;33.39;22.24;101786.66;4940396;28;45495;-73
2023/06/26 14:21:23;;;;;;;;;2.00;2.00;;;;;33.31;21.99;101795.28;4937235;28;45338;-73
2023/06/26 14:23:49;;;;;;;;;1.50;0.25;;;;;33.14;21.56;101807.19;4941679;28;45156;-74
2023/06/26 14:26:14;;;;;;;;;1.00;1.00;;;;;33.07;22.00;101804.84;4946974;28;45384;-73
2023/06/26 14:28:39;;;;;;;;;1.75;0.50;;;;;33.09;21.97;101797.44;4955126;28;47089;-72
2023/06/26 14:31:05;;;;;;;;;5.50;1.75;;;;;33.13;22.17;101813.63;4947005;28;45385;-73
2023/06/26 14:33:30;;;;;;;;;1.25;1.00;;;;;33.11;22.67;101785.44;4949603;28;45212;-73
2023/06/26 14:35:56;;;;;;;;;0.75;0.75;;;;;33.07;21.67;101794.78;4941450;28;45239;-73
2023/06/26 14:38:21;;;;;;;;;2.25;1.50;;;;;33.06;22.15;101803.97;4950135;28;45456;-73
2023/06/26 14:40:46;;;;;;;;;0.75;0.75;;;;;32.99;22.40;101807.97;4939520;28;45231;-72
2023/06/26 14:43:12;;;;;;;;;1.00;1.00;;;;;32.95;21.84;101799.03;4940319;28;45211;-73
2023/06/26 14:45:37;;;;;;;;;2.00;2.00;;;;;33.12;22.46;101802.75;4933931;28;47334;-72
2023/06/26 14:48:03;;;;;;;;;2.00;2.00;;;;;33.02;21.70;101807.84;4947623;28;47154;-73
2023/06/26 14:50:28;;;;;;;;;2.00;0.75;;;;;33.01;21.97;101827.09;4939137;28;45222;-72
2023/06/26 14:52:53;;;;;;;;;2.00;1.00;;;;;32.77;21.26;101821.94;4950369;28;45251;-71
2023/06/26 14:55:19;;;;;;;;;1.00;1.00;;;;;32.53;22.10;101814.03;4939829;28;45476;-73
2023/06/26 14:57:44;;;;;;;;;2.50;1.00;;;;;32.40;22.46;101811.97;4941469;28;46224;-73
2023/06/26 15:00:10;;;;;;;;;1.00;1.00;;;;;32.26;22.37;101813.56;4947175;28;45443;-73
2023/06/26 15:02:36;;;;;;;;;1.25;1.25;;;;;32.12;22.43;101827.06;4953368;28;45390;-73
2023/06/26 15:05:01;;;;;;;;;0.50;0.50;;;;;31.88;22.70;101826.41;4945168;28;45408;-72
2023/06/26 15:07:26;;;;;;;;;1.50;1.25;;;;;31.69;23.15;101834.59;4955067;28;45349;-72
2023/06/26 15:09:52;;;;;;;;;1.50;1.50;;;;;31.36;23.18;101815.22;4948576;28;47769;-72
2023/06/26 15:12:17;;;;;;;;;3.00;2.75;;;;;31.35;23.76;101827.97;4951440;28;45426;-72
2023/06/26 15:14:42;;;;;;;;;3.00;1.50;;;;;31.13;23.37;101817.13;4947604;28;45506;-72
2023/06/26 15:17:08;;;;;;;;;2.75;1.75;;;;;30.83;23.79;101822.13;4939906;28;45753;-72
2023/06/26 15:19:34;;;;;;;;;2.00;2.00;;;;;30.61;24.41;101818.53;4942833;28;45298;-73
2023/06/26 15:21:59;;;;;;;;;1.20;1.20;;;;;30.45;23.93;101812.88;4947750;28;45366;-72
2023/06/26 15:24:25;;;;;;;;;1.00;1.00;;;;;30.32;23.90;101815.22;4948141;28;45970;-73
2023/06/26 15:26:50;;;;;;;;;1.25;1.25;;;;;30.20;23.95;101811.13;4936505;28;46369;-73
2023/06/26 15:29:17;;;;;;;;;2.25;2.00;;;;;30.20;24.90;101816.59;4938046;28;45963;-73
2023/06/26 15:31:43;;;;;;;;;0.20;0.20;;;;;30.03;24.63;101809.09;4940056;28;45368;-71
2023/06/26 15:34:08;;;;;;;;;2.50;2.50;;;;;29.89;24.76;101801.47;4941222;28;45444;-74
2023/06/26 15:36:33;;;;;;;;;3.75;3.00;;;;;29.94;25.11;101804.03;4944745;28;45239;-74
2023/06/26 15:38:59;;;;;;;;;3.50;3.50;;;;;30.03;24.60;101810.94;4946383;28;45303;-73
2023/06/26 15:41:24;;;;;;;;;3.00;3.00;;;;;29.97;24.72;101812.09;4937475;28;45415;-73
2023/06/26 15:43:50;;;;;;;;;2.25;2.00;;;;;29.85;24.54;101805.28;4938061;28;45257;-74
2023/06/26 15:46:15;;;;;;;;;4.75;4.00;;;;;29.76;24.82;101797.47;4940941;28;45284;-75
2023/06/26 15:48:41;;;;;;;;;2.00;2.00;;;;;29.79;25.52;101794.63;4944509;28;45503;-74
2023/06/26 15:51:06;;;;;;;;;3.00;3.00;;;;;29.59;25.00;101797.22;4948815;28;45407;-74
2023/06/26 15:53:37;;;;;;;;;4.00;3.00;;;;;29.47;25.52;101803.16;4958768;28;45304;-74
2023/06/26 15:56:08;;;;;;;;;4.20;4.20;;;;;29.30;25.59;101810.16;4938403;28;45389;-74
2023/06/26 15:58:34;;;;;;;;;7.20;4.00;;;;;29.00;25.26;101815.75;4960267;28;45392;-74
2023/06/26 16:01:00;;;;;;;;;5.20;2.20;;;;;28.96;25.42;101819.53;4947924;28;45365;-73
2023/06/26 16:03:25;;;;;;;;;2.50;2.50;;;;;28.77;25.28;101818.41;4953458;28;45262;-74
2023/06/26 16:05:51;;;;;;;;;3.25;3.00;;;;;28.73;25.74;101825.78;4950054;28;45958;-74
2023/06/26 16:08:16;;;;;;;;;5.50;3.00;;;;;28.75;25.69;101826.63;4952889;28;45204;-74
2023/06/26 16:10:41;;;;;;;;;6.00;4.00;;;;;28.68;25.51;101832.31;4941738;28;45480;-73
2023/06/26 16:13:07;;;;;;;;;2.50;2.50;;;;;28.55;26.20;101818.28;4951732;28;45607;-73
2023/06/26 16:15:32;;;;;;;;;3.25;3.25;;;;;28.40;25.67;101826.91;4943703;28;45410;-73
2023/06/26 16:17:57;;;;;;;;;4.00;3.00;;;;;28.25;25.58;101831.03;4943077;28;45475;-74
2023/06/26 16:20:22;;;;;;;;;2.50;2.50;;;;;28.02;25.93;101815.50;4947879;28;45362;-73
2023/06/26 16:22:48;;;;;;;;;3.25;3.25;;;;;27.89;26.07;101814.97;4941611;28;45636;-74
2023/06/26 16:25:13;;;;;;;;;5.50;3.75;;;;;27.79;26.85;101810.75;4943981;28;46062;-73
2023/06/26 16:27:42;;;;;;;;;5.75;3.00;;;;;27.74;26.78;101823.59;4945281;28;45354;-73
2023/06/26 16:30:08;;;;;;;;;6.75;3.75;;;;;27.74;27.24;101819.03;4948289;28;45440;-73
2023/06/26 16:32:34;;;;;;;;;4.50;4.00;;;;;27.73;27.20;101821.78;4941121;28;46160;-73
2023/06/26 16:34:59;;;;;;;;;3.75;2.00;;;;;27.70;27.03;101825.53;4938172;28;46143;-73
2023/06/26 16:37:25;;;;;;;;;1.00;1.00;;;;;27.55;26.67;101805.13;4948627;28;45307;-72
2023/06/26 16:39:50;;;;;;;;;2.00;2.00;;;;;27.52;26.29;101816.09;4934696;28;45369;-74
2023/06/26 16:42:18;;;;;;;;;1.50;1.50;;;;;27.51;26.33;101821.59;4952544;28;48670;-73
2023/06/26 16:44:44;;;;;;;;;2.75;2.75;;;;;27.40;26.11;101809.19;4934543;28;45713;-74
2023/06/26 16:47:09;;;;;;;;;2.00;2.00;;;;;27.40;26.05;101814.63;4957134;28;45226;-73
2023/06/26 16:49:34;;;;;;;;;1.50;1.25;;;;;27.42;26.59;101818.19;4948858;28;45697;-73
2023/06/26 16:52:01;;;;;;;;;3.75;3.00;;;;;27.35;26.77;101802.13;4938100;28;45317;-74
2023/06/26 16:54:27;;;;;;;;;1.80;1.80;;;;;27.24;26.67;101802.44;4943404;28;46617;-74
2023/06/26 16:56:52;;;;;;;;;1.25;1.25;;;;;27.17;26.89;101807.16;4948002;28;45353;-72
2023/06/26 16:59:19;;;;;;;;;3.00;2.00;;;;;27.07;26.96;101824.59;4947459;28;45452;-71
2023/06/26 17:01:45;;;;;;;;;3.00;1.25;;;;;26.85;27.09;101818.00;4949633;28;45530;-71
2023/06/26 17:04:10;;;;;;;;;3.50;1.50;;;;;26.77;27.75;101821.81;4948520;28;45342;-71
2023/06/26 17:06:35;;;;;;;;;2.75;1.50;;;;;26.81;27.32;101829.88;4949333;28;45306;-71
2023/06/26 17:09:00;;;;;;;;;1.75;1.75;;;;;26.75;26.96;101834.53;4951147;28;45365;-72
2023/06/26 17:11:26;;;;;;;;;1.75;1.00;;;;;26.74;27.11;101831.84;4942574;28;45478;-71
2023/06/26 17:13:51;;;;;;;;;4.00;2.00;;;;;26.69;27.10;101829.28;4953491;28;45253;-71
2023/06/26 17:16:16;;;;;;;;;1.00;0.00;;;;;26.54;27.42;101808.84;4938022;28;45311;-73
2023/06/26 17:18:42;;;;;;;;;1.50;1.50;;;;;26.57;27.18;101840.41;4941937;28;45313;-71
2023/06/26 17:21:07;;;;;;;;;1.00;1.00;;;;;26.46;27.30;101834.34;4934952;28;45417;-71
2023/06/26 17:23:32;;;;;;;;;1.00;1.00;;;;;26.39;27.66;101843.59;4942961;28;46125;-71
2023/06/26 17:25:58;;;;;;;;;2.00;2.00;;;;;26.25;28.01;101833.97;4936528;28;45421;-71
2023/06/26 17:28:23;;;;;;;;;2.00;2.00;;;;;26.13;27.68;101831.53;4943258;28;45757;-71
2023/06/26 17:30:49;;;;;;;;;1.00;1.00;;;;;26.17;28.08;101848.63;4936363;28;45341;-73
2023/06/26 17:33:14;;;;;;;;;2.00;1.00;;;;;26.03;28.10;101843.53;4943172;28;45305;-70
2023/06/26 17:35:40;;;;;;;;;1.75;0.75;;;;;25.98;28.43;101857.19;4941191;28;45329;-71
2023/06/26 17:38:06;;;;;;;;;1.50;1.00;;;;;25.86;28.35;101852.94;4944651;28;45227;-70
2023/06/26 17:40:31;;;;;;;;;1.75;1.75;;;;;25.82;28.48;101861.13;4937963;28;45463;-73
2023/06/26 17:42:57;;;;;;;;;1.75;1.75;;;;;25.67;29.06;101859.66;4942866;28;45462;-71
2023/06/26 17:45:22;;;;;;;;;2.00;2.00;;;;;25.55;29.24;101849.09;4939748;28;45384;-71
2023/06/26 17:47:48;;;;;;;;;3.00;2.00;;;;;25.53;29.19;101859.06;4938134;28;45378;-71
2023/06/26 17:50:13;;;;;;;;;1.00;1.00;;;;;25.47;28.64;101864.59;4938991;28;45695;-71
2023/06/26 17:52:39;;;;;;;;;2.50;1.00;;;;;25.31;28.95;101855.91;4949570;28;46301;-71
2023/06/26 17:55:06;;;;;;;;;1.50;1.50;;;;;25.19;29.28;101852.50;4947917;28;45551;-71